Brooks, Georgia
Current Conditions -  °F | °C
As of 11:53 AM on Saturday 22 Nov 2014 (Local Time) from KFFC Reporting Station
Clear Clear  
Wind Chill: 56°   Ceiling: Unl
Heat Index: 56°   Visibility: 10mi
Dew Point: 29°   Wind: 10mph
Humidity: 36%   Direction: 110°ESE
Pressure: 30.4"   Gusts: NA
Location:  33.29°N, 84.46°W
Report Text: KFFC 221653Z AUTO 11009KT 10SM CLR 13/M02 A3040 RMK AO2 SLP301 T01331017
Loading
Personal Weather Stations






























Interactive Weather Map New forecast layout! Learn more

10-Day Weather Forecast

Advertisements
Track Severe Weather on mobile